Time;durP1;ratioP1;P1;durP2;ratioP2;P2;SDS_P1;SDS_P2;PMS_P1;PMS_P2;Temp;Humidity;BMP_temperature;BMP_pressure;BME280_temperature;BME280_humidity;BME280_pressure;Samples;Min_cycle;Max_cycle;Signal;HPM_P1;HPM_P2
2022/11/16 00:00:49;;;;;;;9.30;1.65;;;9.70;99.90;;;;;;5115630;28;20161;-63
2022/11/16 00:03:16;;;;;;;5.90;1.25;;;9.70;99.90;;;;;;5115502;28;20486;-63
2022/11/16 00:05:42;;;;;;;7.10;1.50;;;9.70;99.90;;;;;;5134251;27;20047;-64
2022/11/16 00:08:09;;;;;;;9.57;1.33;;;9.70;99.90;;;;;;5136215;27;20157;-63
2022/11/16 00:10:36;;;;;;;6.93;1.20;;;9.70;99.90;;;;;;5136068;27;20047;-64
2022/11/16 00:13:02;;;;;;;5.68;1.30;;;9.60;99.90;;;;;;5136200;27;20035;-63
2022/11/16 00:15:29;;;;;;;6.82;1.58;;;9.60;99.90;;;;;;5135998;27;20493;-63
2022/11/16 00:17:56;;;;;;;7.22;1.20;;;9.60;99.90;;;;;;5136076;27;20057;-64
2022/11/16 00:20:23;;;;;;;9.13;1.00;;;9.60;99.90;;;;;;5135969;27;20035;-64
2022/11/16 00:22:49;;;;;;;4.68;0.98;;;9.60;99.90;;;;;;5135722;27;20084;-63
2022/11/16 00:25:19;;;;;;;7.80;2.05;;;9.50;99.90;;;;;;5135442;27;20038;-63
2022/11/16 00:27:47;;;;;;;4.90;0.88;;;9.50;99.90;;;;;;5135623;27;20039;-64
2022/11/16 00:30:14;;;;;;;5.38;1.00;;;9.50;99.90;;;;;;5115431;27;20039;-63
2022/11/16 00:32:41;;;;;;;5.13;0.95;;;9.50;99.90;;;;;;5134472;27;20110;-63
2022/11/16 00:35:08;;;;;;;4.30;1.00;;;9.50;99.90;;;;;;5116560;27;20525;-63
2022/11/16 00:37:35;;;;;;;8.35;1.77;;;9.50;99.90;;;;;;5134662;27;20047;-63
2022/11/16 00:40:02;;;;;;;8.32;1.15;;;9.60;99.90;;;;;;5135271;27;20047;-63
2022/11/16 00:42:28;;;;;;;7.82;0.93;;;9.60;99.90;;;;;;5116248;27;20108;-63
2022/11/16 00:44:55;;;;;;;9.98;1.77;;;9.60;99.90;;;;;;5111947;27;20040;-63
2022/11/16 00:47:22;;;;;;;7.25;1.40;;;9.70;99.90;;;;;;5116376;28;20062;-62
2022/11/16 00:49:49;;;;;;;8.27;1.10;;;9.60;99.90;;;;;;5135172;27;20039;-64
2022/11/16 00:52:16;;;;;;;2.60;0.57;;;9.60;99.90;;;;;;5109848;27;20088;-64
2022/11/16 00:54:43;;;;;;;3.72;0.70;;;9.60;99.90;;;;;;5116611;27;20046;-64
2022/11/16 00:57:10;;;;;;;2.83;0.50;;;9.60;99.90;;;;;;5116952;27;20043;-64
2022/11/16 00:59:36;;;;;;;2.88;0.93;;;9.60;99.90;;;;;;5135159;27;20069;-63
2022/11/16 01:02:03;;;;;;;2.00;0.50;;;9.60;99.90;;;;;;5136076;27;20039;-63
2022/11/16 01:04:30;;;;;;;3.45;0.63;;;9.60;99.90;;;;;;5135082;27;20374;-63
2022/11/16 01:06:58;;;;;;;1.17;0.40;;;9.50;99.90;;;;;;5117033;27;20100;-63
2022/11/16 01:09:25;;;;;;;3.25;0.60;;;9.50;99.90;;;;;;5135568;27;20118;-63
2022/11/16 01:12:11;;;;;;;2.78;0.75;;;9.50;99.90;;;;;;5116926;27;20031;-63
2022/11/16 01:14:38;;;;;;;2.97;0.47;;;9.50;99.90;;;;;;5135035;27;20134;-63
2022/11/16 01:17:04;;;;;;;2.53;0.40;;;9.40;99.90;;;;;;5117021;27;20088;-64
2022/11/16 01:19:31;;;;;;;3.83;1.25;;;9.40;99.90;;;;;;5116750;27;20047;-63
2022/11/16 01:21:58;;;;;;;2.75;0.50;;;9.40;99.90;;;;;;5135428;27;20425;-63
2022/11/16 01:24:25;;;;;;;3.33;0.47;;;9.40;99.90;;;;;;5116349;27;20043;-62
2022/11/16 01:26:55;;;;;;;3.08;0.60;;;9.30;99.90;;;;;;5134855;27;20084;-62
2022/11/16 01:29:23;;;;;;;2.83;0.40;;;9.30;99.90;;;;;;5135347;27;20058;-62
2022/11/16 01:31:54;;;;;;;2.97;0.50;;;9.20;99.90;;;;;;5117228;27;20031;-64
2022/11/16 01:34:21;;;;;;;5.70;0.80;;;9.20;99.90;;;;;;5116497;27;20045;-65
2022/11/16 01:36:49;;;;;;;3.17;0.80;;;9.20;99.90;;;;;;5116672;27;20039;-62
2022/11/16 01:39:17;;;;;;;4.78;0.90;;;9.10;99.90;;;;;;5099599;27;20063;-63
2022/11/16 01:41:51;;;;;;;4.40;1.25;;;9.10;99.90;;;;;;5116526;27;20069;-62
2022/11/16 01:44:18;;;;;;;4.10;0.70;;;9.10;99.90;;;;;;5116326;27;20054;-63
2022/11/16 01:46:52;;;;;;;4.43;0.90;;;9.00;99.90;;;;;;5116501;27;20512;-64
2022/11/16 01:49:19;;;;;;;5.07;0.65;;;9.00;99.90;;;;;;5116595;27;20038;-63
2022/11/16 01:51:48;;;;;;;5.53;0.55;;;9.00;99.90;;;;;;5134275;27;20122;-62
2022/11/16 01:54:14;;;;;;;3.65;0.70;;;9.00;99.90;;;;;;5132676;27;20039;-63
2022/11/16 01:56:51;;;;;;;2.67;0.70;;;9.10;99.90;;;;;;5117910;28;20124;-63
2022/11/16 01:59:31;;;;;;;6.50;0.82;;;9.00;99.90;;;;;;5116159;28;20051;-61
2022/11/16 02:01:58;;;;;;;8.45;1.15;;;9.00;99.90;;;;;;5116031;27;20051;-61
2022/11/16 02:04:25;;;;;;;6.25;0.82;;;9.10;99.90;;;;;;5098882;28;20569;-63
2022/11/16 02:06:54;;;;;;;8.43;0.95;;;9.10;99.90;;;;;;5133789;28;20485;-62
2022/11/16 02:12:08;;;;;;;4.40;0.82;;;9.10;99.90;;;;;;5114952;28;20047;-63
2022/11/16 02:14:35;;;;;;;7.35;0.98;;;9.20;99.90;;;;;;5098425;28;20494;-62
2022/11/16 02:17:02;;;;;;;5.90;1.25;;;9.20;99.90;;;;;;5116373;28;20041;-62
2022/11/16 02:19:33;;;;;;;6.18;1.23;;;9.20;99.90;;;;;;5115963;28;20130;-63
2022/11/16 02:22:00;;;;;;;7.40;1.15;;;9.30;99.90;;;;;;5115921;28;20047;-62
2022/11/16 02:24:27;;;;;;;6.82;1.00;;;9.30;99.90;;;;;;5115730;28;20032;-62
2022/11/16 02:26:54;;;;;;;6.55;1.00;;;9.30;99.90;;;;;;5133894;28;20031;-63
2022/11/16 02:29:21;;;;;;;7.70;1.20;;;9.30;99.90;;;;;;5115571;28;20561;-61
2022/11/16 02:31:47;;;;;;;7.22;0.88;;;9.30;99.90;;;;;;5115826;28;20043;-62
2022/11/16 02:34:15;;;;;;;8.00;1.02;;;9.30;99.90;;;;;;5114740;28;20043;-62
2022/11/16 02:36:42;;;;;;;10.77;2.28;;;9.30;99.90;;;;;;5115819;28;20050;-62
2022/11/16 02:39:09;;;;;;;7.65;1.05;;;9.40;99.90;;;;;;5133841;28;20078;-63
2022/11/16 02:41:35;;;;;;;7.90;1.45;;;9.40;99.90;;;;;;5134041;28;20053;-62
2022/11/16 02:44:02;;;;;;;5.90;1.13;;;9.40;99.90;;;;;;5133771;27;20055;-64
2022/11/16 02:46:29;;;;;;;6.93;1.50;;;9.40;99.90;;;;;;5115911;28;20066;-63
2022/11/16 02:48:56;;;;;;;9.07;1.35;;;9.40;99.90;;;;;;5134197;28;20438;-62
2022/11/16 02:51:24;;;;;;;7.07;1.35;;;9.50;99.90;;;;;;5115397;28;20130;-62
2022/11/16 02:53:51;;;;;;;4.85;1.08;;;9.50;99.90;;;;;;5115439;28;20039;-61
2022/11/16 02:56:18;;;;;;;6.85;0.85;;;9.50;99.90;;;;;;5115690;28;20054;-62
2022/11/16 02:58:46;;;;;;;6.10;1.00;;;9.50;99.90;;;;;;5115656;28;20035;-61
2022/11/16 03:01:14;;;;;;;6.90;1.05;;;9.50;99.90;;;;;;5098371;28;20039;-62
2022/11/16 03:03:41;;;;;;;4.95;0.90;;;9.40;99.90;;;;;;5115249;28;20369;-61
2022/11/16 03:06:10;;;;;;;5.57;1.00;;;9.40;99.90;;;;;;5115720;28;20062;-63
2022/11/16 03:08:37;;;;;;;6.00;1.20;;;9.40;99.90;;;;;;5115745;28;20049;-62
2022/11/16 03:13:51;;;;;;;8.02;0.95;;;9.30;99.90;;;;;;5119209;27;20046;-62
2022/11/16 03:16:18;;;;;;;8.32;1.10;;;9.30;99.90;;;;;;5118516;27;20058;-63
2022/11/16 03:18:45;;;;;;;6.68;1.08;;;9.30;99.90;;;;;;5118909;27;20050;-62
2022/11/16 03:21:12;;;;;;;4.72;1.00;;;9.20;99.90;;;;;;5119145;27;20039;-63
2022/11/16 03:23:38;;;;;;;8.52;1.05;;;9.20;99.90;;;;;;5137583;27;20039;-63
2022/11/16 03:26:05;;;;;;;10.48;1.27;;;9.20;99.90;;;;;;5137609;27;20078;-63
2022/11/16 03:28:32;;;;;;;5.32;1.10;;;9.20;99.90;;;;;;5119432;27;20096;-62
2022/11/16 03:31:01;;;;;;;7.55;1.25;;;9.20;99.90;;;;;;5118698;27;20177;-62
2022/11/16 03:33:29;;;;;;;6.10;1.15;;;9.20;99.90;;;;;;5119226;27;20063;-62
2022/11/16 03:35:56;;;;;;;9.23;1.00;;;9.20;99.90;;;;;;5118783;27;20482;-61
2022/11/16 03:38:23;;;;;;;6.63;1.10;;;9.30;99.90;;;;;;5137218;27;20043;-62
2022/11/16 03:40:51;;;;;;;6.47;1.00;;;9.30;99.90;;;;;;5118070;27;20035;-62
2022/11/16 03:43:18;;;;;;;3.60;0.73;;;9.30;99.90;;;;;;5118460;27;20050;-62
2022/11/16 03:45:46;;;;;;;6.28;1.05;;;9.30;99.90;;;;;;5117711;27;20035;-62
2022/11/16 03:48:12;;;;;;;7.00;1.10;;;9.40;99.90;;;;;;5118640;27;20527;-62
2022/11/16 03:50:39;;;;;;;7.10;1.17;;;9.40;99.90;;;;;;5101446;27;20035;-61
2022/11/16 03:53:07;;;;;;;6.80;1.10;;;9.40;99.90;;;;;;5131611;27;20485;-62
2022/11/16 03:55:35;;;;;;;5.35;0.90;;;9.40;99.90;;;;;;5118349;27;20035;-63
2022/11/16 03:58:02;;;;;;;6.13;0.73;;;9.40;99.90;;;;;;5118477;27;20080;-62
2022/11/16 04:00:28;;;;;;;5.53;0.95;;;9.40;99.90;;;;;;5137337;27;20100;-61
2022/11/16 04:02:55;;;;;;;4.30;0.90;;;9.50;99.90;;;;;;5101499;27;20172;-62
2022/11/16 04:24:43;;;;;;;3.38;0.90;;;9.50;99.90;;;;;;5118241;27;20134;-63
2022/11/16 04:29:55;;;;;;;4.47;1.08;;;9.50;99.90;;;;;;5135245;27;20373;-62
2022/11/16 04:37:55;;;;;;;3.55;0.93;;;9.50;99.90;;;;;;5117520;27;20050;-63
2022/11/16 04:40:28;;;;;;;3.00;0.65;;;9.50;99.90;;;;;;5117947;27;20039;-62
2022/11/16 04:42:56;;;;;;;2.63;0.52;;;9.50;99.90;;;;;;5116478;27;20035;-63
2022/11/16 04:48:09;;;;;;;2.97;0.47;;;9.50;99.90;;;;;;5117468;27;20046;-62
2022/11/16 04:50:36;;;;;;;2.53;0.57;;;9.50;99.90;;;;;;5117530;27;20035;-62
2022/11/16 04:53:03;;;;;;;4.50;0.60;;;9.50;99.90;;;;;;5117145;27;20436;-62
2022/11/16 04:55:35;;;;;;;1.63;0.50;;;9.50;99.90;;;;;;5117189;27;20058;-61
2022/11/16 04:58:02;;;;;;;2.60;0.50;;;9.50;99.90;;;;;;5117403;27;20047;-62
2022/11/16 05:00:29;;;;;;;3.13;0.50;;;9.40;99.90;;;;;;5135408;27;20047;-61
2022/11/16 05:02:56;;;;;;;2.20;0.50;;;9.40;99.90;;;;;;5116776;27;20054;-61
2022/11/16 05:05:28;;;;;;;4.10;0.50;;;9.50;99.90;;;;;;5116855;27;20101;-63
2022/11/16 05:07:56;;;;;;;5.95;0.80;;;9.40;99.90;;;;;;5117489;27;20043;-61
2022/11/16 05:10:27;;;;;;;3.85;0.75;;;9.40;99.90;;;;;;5116944;27;20059;-61
2022/11/16 05:12:54;;;;;;;6.22;0.80;;;9.40;99.90;;;;;;5117386;27;20092;-62
2022/11/16 05:15:22;;;;;;;1.98;0.55;;;9.30;99.90;;;;;;5116489;27;20055;-62
2022/11/16 05:17:50;;;;;;;4.28;0.68;;;9.40;99.90;;;;;;5116839;27;20132;-61
2022/11/16 05:24:32;;;;;;;2.70;0.60;;;9.30;99.90;;;;;;5135101;27;20088;-61
2022/11/16 05:25:55;;;;;;;3.53;0.80;;;9.30;99.90;;;;;;5116273;27;20049;-62
2022/11/16 05:28:22;;;;;;;4.03;0.82;;;9.30;99.90;;;;;;5116688;27;20039;-61
2022/11/16 05:30:50;;;;;;;4.78;0.90;;;9.30;99.90;;;;;;5116013;27;20035;-61
2022/11/16 05:33:21;;;;;;;4.45;0.70;;;9.20;99.90;;;;;;5116487;27;20092;-62
2022/11/16 05:35:48;;;;;;;4.30;0.80;;;9.20;99.90;;;;;;5116275;27;20043;-62
2022/11/16 05:38:15;;;;;;;5.07;1.10;;;9.20;99.90;;;;;;5115524;27;20034;-61
2022/11/16 05:40:45;;;;;;;5.40;1.10;;;9.10;99.90;;;;;;5117051;27;20490;-62
2022/11/16 05:43:12;;;;;;;5.88;1.00;;;9.20;99.90;;;;;;5116696;27;20039;-62
2022/11/16 05:45:48;;;;;;;3.78;0.95;;;9.10;99.90;;;;;;5115907;27;20091;-62
2022/11/16 05:48:15;;;;;;;4.25;1.20;;;9.10;99.90;;;;;;5115783;27;20061;-61
2022/11/16 05:50:42;;;;;;;2.97;0.77;;;9.10;99.90;;;;;;5115478;27;20035;-61
2022/11/16 05:53:17;;;;;;;3.17;0.80;;;9.10;99.90;;;;;;5114791;27;20044;-62
2022/11/16 05:55:43;;;;;;;3.58;1.00;;;9.10;99.90;;;;;;5133462;27;20035;-62
2022/11/16 05:58:10;;;;;;;2.00;0.70;;;9.10;99.90;;;;;;5115572;28;20039;-61
2022/11/16 06:00:37;;;;;;;2.90;0.60;;;9.10;99.90;;;;;;5115801;27;20054;-63
2022/11/16 06:03:06;;;;;;;4.25;0.93;;;9.10;99.90;;;;;;5099215;27;20047;-63
2022/11/16 06:05:33;;;;;;;3.83;0.80;;;9.10;99.90;;;;;;5133975;27;20055;-63
2022/11/16 06:08:06;;;;;;;6.82;1.10;;;9.10;99.90;;;;;;5115375;28;20046;-63
2022/11/16 06:10:32;;;;;;;4.70;1.00;;;9.20;99.90;;;;;;5134376;28;20084;-64
2022/11/16 06:12:59;;;;;;;4.07;1.00;;;9.20;99.90;;;;;;5116071;28;20405;-62
2022/11/16 06:15:27;;;;;;;6.47;1.10;;;9.20;99.90;;;;;;5110768;28;20443;-61
2022/11/16 06:17:53;;;;;;;5.47;1.13;;;9.20;99.90;;;;;;5134044;28;20103;-61
2022/11/16 06:20:20;;;;;;;5.38;1.20;;;9.30;99.90;;;;;;5115280;28;20051;-63
2022/11/16 06:22:47;;;;;;;7.60;1.38;;;9.30;99.90;;;;;;5115925;28;20129;-64
2022/11/16 06:25:14;;;;;;;8.07;1.20;;;9.30;99.90;;;;;;5116124;28;20509;-64
2022/11/16 06:27:43;;;;;;;6.35;1.40;;;9.30;99.90;;;;;;5114983;28;20086;-62
2022/11/16 06:30:12;;;;;;;6.55;1.35;;;9.30;99.90;;;;;;5115466;28;20039;-63
2022/11/16 06:32:39;;;;;;;6.20;1.38;;;9.40;99.90;;;;;;5115415;28;20130;-63
2022/11/16 06:35:07;;;;;;;6.45;1.02;;;9.40;99.90;;;;;;5115491;28;20027;-64
2022/11/16 06:37:34;;;;;;;7.70;1.73;;;9.40;99.90;;;;;;5115318;28;20043;-63
2022/11/16 06:40:01;;;;;;;6.90;1.23;;;9.40;99.90;;;;;;5115030;28;20039;-64
2022/11/16 06:42:34;;;;;;;5.35;1.30;;;9.40;99.90;;;;;;5115808;28;20051;-62
2022/11/16 06:45:02;;;;;;;4.25;1.08;;;9.40;99.90;;;;;;5115553;27;20644;-62
2022/11/16 06:47:34;;;;;;;8.80;1.30;;;9.40;99.90;;;;;;5116891;27;20038;-62
2022/11/16 06:50:02;;;;;;;5.72;1.10;;;9.40;99.90;;;;;;5131667;27;20035;-63
2022/11/16 06:52:29;;;;;;;4.80;1.02;;;9.50;99.90;;;;;;5114392;27;20035;-63
2022/11/16 06:54:56;;;;;;;8.40;1.08;;;9.50;99.90;;;;;;5119741;27;20131;-62
2022/11/16 06:57:23;;;;;;;7.68;1.23;;;9.50;99.90;;;;;;5137712;27;20351;-63
2022/11/16 06:59:50;;;;;;;5.47;1.63;;;9.50;99.90;;;;;;5119248;27;20035;-64
2022/11/16 07:02:20;;;;;;;5.15;1.10;;;9.50;99.90;;;;;;5119640;27;20348;-64
2022/11/16 07:04:47;;;;;;;9.40;1.23;;;9.50;99.90;;;;;;5119043;27;20047;-63
2022/11/16 07:07:14;;;;;;;8.38;1.30;;;9.50;99.90;;;;;;5118981;27;20086;-63
2022/11/16 07:09:43;;;;;;;6.55;1.10;;;9.50;99.90;;;;;;5119180;27;20152;-62
2022/11/16 07:12:10;;;;;;;4.68;1.20;;;9.50;99.90;;;;;;5118817;27;20039;-62
2022/11/16 07:14:38;;;;;;;5.65;1.27;;;9.50;99.90;;;;;;5118368;27;20043;-63
2022/11/16 07:17:07;;;;;;;7.05;1.48;;;9.50;99.90;;;;;;5127933;27;20031;-62
2022/11/16 07:19:35;;;;;;;5.10;1.23;;;9.50;99.90;;;;;;5114280;27;20043;-62
2022/11/16 07:22:03;;;;;;;4.35;1.05;;;9.50;99.90;;;;;;5119161;27;20031;-63
2022/11/16 07:24:30;;;;;;;5.25;1.10;;;9.50;99.90;;;;;;5118731;27;20046;-62
2022/11/16 07:26:57;;;;;;;3.60;0.93;;;9.40;99.90;;;;;;5137211;27;20481;-62
2022/11/16 07:29:28;;;;;;;6.80;1.48;;;9.40;99.90;;;;;;5118430;27;20059;-63
2022/11/16 07:32:17;;;;;;;5.70;1.20;;;9.40;99.90;;;;;;5119033;27;20802;-63
2022/11/16 07:35:03;;;;;;;;;;;9.50;99.90;;;;;;5119198;27;20111;-62
2022/11/16 07:37:30;;;;;;;6.07;1.40;;;9.40;99.90;;;;;;5118211;27;19927;-62
2022/11/16 07:39:57;;;;;;;8.23;1.40;;;9.50;99.90;;;;;;5118328;27;20070;-63
2022/11/16 07:42:24;;;;;;;6.25;1.30;;;9.50;99.90;;;;;;5118377;27;20091;-63
2022/11/16 07:45:09;;;;;;;7.03;1.50;;;9.40;99.90;;;;;;5136974;27;20105;-63
2022/11/16 07:47:43;;;;;;;8.40;1.75;;;9.40;99.90;;;;;;5101908;27;20043;-63
2022/11/16 07:50:23;;;;;;;8.13;1.52;;;9.40;99.90;;;;;;5118360;27;20109;-62
2022/11/16 07:52:50;;;;;;;4.55;1.00;;;9.40;99.90;;;;;;5117922;27;20413;-62
2022/11/16 07:55:21;;;;;;;11.55;1.83;;;9.40;99.90;;;;;;5092761;28;20043;-63
2022/11/16 07:57:50;;;;;;;8.27;1.48;;;9.40;99.90;;;;;;5075481;28;20051;-63
2022/11/16 08:00:20;;;;;;;6.25;3.65;;;9.40;99.90;;;;;;5075844;28;20538;-62
2022/11/16 08:02:56;;;;;;;4.90;1.45;;;9.40;99.90;;;;;;5076343;28;20036;-62
2022/11/16 08:05:24;;;;;;;4.93;1.20;;;9.40;99.90;;;;;;5076079;28;20064;-63
2022/11/16 08:07:51;;;;;;;8.50;1.55;;;9.40;99.90;;;;;;5092797;28;20044;-63
2022/11/16 08:10:22;;;;;;;6.57;1.48;;;9.40;99.90;;;;;;5076199;28;20041;-64
2022/11/16 08:12:49;;;;;;;6.22;1.40;;;9.50;99.90;;;;;;5076594;28;20106;-63
2022/11/16 08:15:17;;;;;;;4.63;1.45;;;9.50;99.90;;;;;;5075286;28;20052;-64
2022/11/16 08:17:44;;;;;;;5.10;1.30;;;9.50;99.90;;;;;;5076236;28;20048;-65
2022/11/16 08:20:12;;;;;;;5.45;1.50;;;9.50;99.90;;;;;;5075987;28;20578;-64
2022/11/16 08:22:39;;;;;;;7.82;1.30;;;9.50;99.90;;;;;;5074879;28;20051;-63
2022/11/16 08:25:07;;;;;;;6.95;1.50;;;9.50;99.90;;;;;;5075257;28;20032;-62
2022/11/16 08:27:34;;;;;;;3.33;0.80;;;9.50;99.90;;;;;;5116075;27;20043;-63
2022/11/16 08:30:08;;;;;;;5.35;1.10;;;9.60;99.90;;;;;;5116003;27;20039;-65
2022/11/16 08:32:37;;;;;;;4.07;0.90;;;9.60;99.90;;;;;;5133008;27;20138;-63
2022/11/16 08:35:04;;;;;;;5.97;1.00;;;9.60;99.90;;;;;;5116442;27;20081;-62
2022/11/16 08:37:31;;;;;;;4.20;0.95;;;9.60;99.90;;;;;;5134805;27;20047;-62
2022/11/16 08:39:57;;;;;;;5.38;1.20;;;9.70;99.90;;;;;;5116850;27;20039;-64
2022/11/16 08:42:24;;;;;;;4.25;1.45;;;9.70;99.90;;;;;;5116279;27;20039;-62
2022/11/16 08:44:51;;;;;;;5.43;0.95;;;9.70;99.90;;;;;;5114673;27;20125;-63
2022/11/16 08:47:19;;;;;;;6.15;1.25;;;9.70;99.90;;;;;;5107763;27;20383;-62
2022/11/16 08:49:49;;;;;;;3.05;0.90;;;9.80;99.90;;;;;;5114046;27;20486;-63
2022/11/16 08:52:18;;;;;;;2.25;0.70;;;9.80;99.90;;;;;;5115697;27;20047;-63
2022/11/16 08:54:46;;;;;;;3.63;0.90;;;9.90;99.90;;;;;;5114959;27;20035;-62
2022/11/16 08:57:14;;;;;;;5.38;1.20;;;9.90;99.90;;;;;;5114581;27;20067;-63
2022/11/16 08:59:42;;;;;;;7.63;1.10;;;9.90;99.90;;;;;;5114943;27;20037;-63
2022/11/16 09:02:12;;;;;;;12.77;1.80;;;10.00;99.90;;;;;;5133356;27;20393;-63
2022/11/16 09:04:39;;;;;;;5.32;1.10;;;10.00;99.90;;;;;;5133848;27;20418;-64
2022/11/16 09:07:05;;;;;;;13.07;1.52;;;10.00;99.90;;;;;;5133243;27;20493;-62
2022/11/16 09:09:32;;;;;;;7.70;1.70;;;10.00;99.90;;;;;;5132531;27;20035;-63
2022/11/16 09:11:59;;;;;;;4.60;1.17;;;10.00;99.90;;;;;;5132467;27;20039;-62
2022/11/16 09:14:27;;;;;;;6.05;1.10;;;10.10;99.90;;;;;;5133190;27;20464;-63
2022/11/16 09:16:54;;;;;;;2.72;0.90;;;10.10;99.90;;;;;;5132207;27;20028;-63
2022/11/16 09:19:21;;;;;;;3.90;0.98;;;10.10;99.90;;;;;;5132817;27;20039;-62
2022/11/16 09:21:49;;;;;;;5.68;1.20;;;10.10;99.90;;;;;;5133570;27;20039;-62
2022/11/16 09:24:15;;;;;;;9.57;1.50;;;10.10;99.90;;;;;;5111073;27;20035;-63
2022/11/16 09:26:42;;;;;;;22.42;2.70;;;10.10;99.90;;;;;;5131416;27;20043;-63
2022/11/16 09:29:09;;;;;;;6.28;1.10;;;10.10;99.90;;;;;;5131377;27;20043;-62
2022/11/16 09:31:36;;;;;;;6.57;1.08;;;10.20;99.90;;;;;;5133397;27;20497;-63
2022/11/16 09:34:03;;;;;;;6.00;1.00;;;10.20;99.90;;;;;;5132519;27;20035;-63
2022/11/16 09:36:29;;;;;;;5.07;1.02;;;10.30;99.90;;;;;;5133522;27;20500;-64
2022/11/16 09:38:56;;;;;;;4.15;1.05;;;10.40;99.90;;;;;;5132264;27;20066;-63
2022/11/16 09:41:43;;;;;;;4.80;1.00;;;10.40;99.90;;;;;;5129102;27;20043;-62
2022/11/16 09:44:09;;;;;;;3.80;0.90;;;10.50;99.90;;;;;;5132482;27;20049;-62
2022/11/16 09:46:36;;;;;;;3.33;0.70;;;10.60;99.90;;;;;;5133269;27;20039;-62
2022/11/16 09:49:03;;;;;;;4.75;1.02;;;10.70;99.90;;;;;;5132839;27;20031;-63
2022/11/16 09:51:33;;;;;;;5.82;1.20;;;10.70;99.90;;;;;;5116323;28;20039;-64
2022/11/16 09:54:00;;;;;;;7.32;1.27;;;10.80;99.90;;;;;;5133790;27;20114;-63
2022/11/16 09:56:26;;;;;;;6.35;1.55;;;10.80;99.90;;;;;;5133223;27;20031;-62
2022/11/16 09:58:54;;;;;;;6.93;1.10;;;10.90;99.90;;;;;;5130430;27;20053;-63
2022/11/16 10:01:20;;;;;;;10.10;1.20;;;10.90;99.90;;;;;;5133283;27;20424;-63
2022/11/16 10:03:49;;;;;;;14.43;1.27;;;10.90;99.90;;;;;;5132924;27;20046;-63
2022/11/16 10:06:16;;;;;;;13.05;1.17;;;10.80;99.90;;;;;;5133741;27;20047;-63
2022/11/16 10:08:42;;;;;;;6.63;1.45;;;10.80;99.90;;;;;;5133080;28;20450;-64
2022/11/16 10:11:09;;;;;;;6.55;0.90;;;10.80;99.90;;;;;;5133583;28;20543;-63
2022/11/16 10:13:36;;;;;;;9.60;1.27;;;10.80;99.90;;;;;;5128463;28;20118;-63
2022/11/16 10:16:03;;;;;;;50.55;5.13;;;10.80;99.90;;;;;;5132457;27;20428;-63
2022/11/16 10:18:29;;;;;;;3.67;0.90;;;10.80;99.90;;;;;;5115623;28;20047;-62
2022/11/16 10:20:56;;;;;;;8.23;1.50;;;10.80;99.90;;;;;;5135293;27;20062;-62
2022/11/16 10:23:23;;;;;;;7.75;1.20;;;10.80;99.90;;;;;;5137326;27;20070;-62
2022/11/16 10:25:49;;;;;;;4.70;1.13;;;10.80;99.90;;;;;;5137717;27;20054;-62
2022/11/16 10:28:16;;;;;;;6.50;1.33;;;10.80;99.90;;;;;;5133314;27;20047;-63
2022/11/16 10:30:43;;;;;;;5.68;1.00;;;10.80;99.90;;;;;;5137853;27;20031;-63
2022/11/16 10:33:10;;;;;;;4.72;1.27;;;10.80;99.90;;;;;;5137748;27;20121;-63
2022/11/16 10:35:38;;;;;;;6.10;1.42;;;10.80;99.90;;;;;;5130744;27;20050;-63
2022/11/16 10:38:05;;;;;;;4.43;0.95;;;10.90;99.90;;;;;;5134757;27;20371;-63
2022/11/16 10:40:31;;;;;;;4.93;1.27;;;10.90;99.90;;;;;;5136797;27;20095;-63
2022/11/16 10:42:58;;;;;;;9.13;1.23;;;10.90;99.90;;;;;;5136600;27;20114;-63
2022/11/16 10:45:25;;;;;;;10.23;1.27;;;10.90;99.90;;;;;;5135955;27;20524;-62
2022/11/16 10:47:52;;;;;;;6.28;1.17;;;10.90;99.90;;;;;;5118390;27;20100;-62
2022/11/16 10:50:19;;;;;;;8.02;1.25;;;10.80;99.90;;;;;;5136115;27;20376;-64
2022/11/16 10:52:45;;;;;;;9.43;1.02;;;10.80;99.90;;;;;;5136625;27;20031;-64
2022/11/16 10:55:12;;;;;;;6.57;0.98;;;10.90;99.90;;;;;;5137023;27;20146;-61
2022/11/16 10:57:39;;;;;;;4.57;1.20;;;10.90;99.90;;;;;;5137048;27;20490;-63
2022/11/16 11:00:05;;;;;;;6.25;1.15;;;10.90;99.90;;;;;;5136484;27;20070;-63
2022/11/16 11:02:38;;;;;;;9.10;1.88;;;10.90;99.90;;;;;;5136002;27;20151;-63
2022/11/16 11:05:05;;;;;;;6.25;1.35;;;11.00;99.90;;;;;;5135339;27;20059;-63
2022/11/16 11:07:32;;;;;;;8.02;1.50;;;11.10;99.90;;;;;;5136664;27;20039;-62
2022/11/16 11:09:59;;;;;;;5.50;1.05;;;11.20;99.90;;;;;;5135936;27;20070;-63
2022/11/16 11:12:38;;;;;;;7.28;1.30;;;11.30;99.90;;;;;;5136316;27;20043;-62
2022/11/16 11:15:05;;;;;;;7.85;1.17;;;11.30;99.90;;;;;;5134560;27;20981;-62
2022/11/16 11:17:31;;;;;;;13.38;1.95;;;11.30;99.90;;;;;;5136599;27;20370;-63
2022/11/16 11:19:59;;;;;;;8.02;1.30;;;11.30;99.90;;;;;;5137123;27;20085;-62
2022/11/16 11:22:26;;;;;;;7.85;1.20;;;11.30;99.90;;;;;;5136356;27;20581;-62
2022/11/16 11:24:53;;;;;;;10.05;1.77;;;11.30;99.90;;;;;;5136666;27;20103;-62
2022/11/16 11:27:19;;;;;;;11.40;1.52;;;11.30;99.90;;;;;;5137284;27;20071;-62
2022/11/16 11:29:46;;;;;;;7.28;1.10;;;11.30;99.90;;;;;;5132640;27;20031;-64
2022/11/16 11:32:13;;;;;;;6.28;1.50;;;11.20;99.90;;;;;;5135102;27;20114;-62
2022/11/16 11:34:46;;;;;;;5.75;1.00;;;11.20;99.90;;;;;;5135886;27;20043;-62
2022/11/16 11:37:13;;;;;;;5.53;1.05;;;11.20;99.90;;;;;;5135952;27;20107;-61
2022/11/16 11:39:39;;;;;;;7.25;1.23;;;11.20;99.90;;;;;;5132374;27;20104;-63
2022/11/16 11:42:06;;;;;;;6.15;1.30;;;11.20;99.90;;;;;;5136666;27;20047;-62
2022/11/16 11:44:33;;;;;;;3.20;0.80;;;11.30;99.90;;;;;;5132170;27;20039;-61
2022/11/16 11:47:00;;;;;;;11.10;1.40;;;11.40;99.90;;;;;;5136191;27;20087;-61
2022/11/16 11:49:48;;;;;;;7.40;1.02;;;11.50;99.90;;;;;;5111228;27;20032;-62
2022/11/16 11:52:16;;;;;;;3.80;0.93;;;11.60;99.90;;;;;;5134653;27;20103;-61
2022/11/16 11:54:42;;;;;;;8.30;1.25;;;11.60;99.90;;;;;;5131243;27;20042;-62
2022/11/16 11:57:14;;;;;;;7.97;0.90;;;11.60;99.90;;;;;;5135281;27;20039;-62
2022/11/16 11:59:41;;;;;;;8.23;1.02;;;11.60;99.90;;;;;;5135135;27;20465;-60
2022/11/16 12:02:07;;;;;;;7.60;1.25;;;11.60;99.90;;;;;;5134571;27;20114;-62
2022/11/16 12:04:34;;;;;;;5.80;1.10;;;11.60;99.90;;;;;;5134611;27;20047;-62
2022/11/16 12:07:01;;;;;;;4.30;0.90;;;11.60;99.90;;;;;;5135670;27;20107;-62
2022/11/16 12:09:28;;;;;;;8.82;1.15;;;11.60;99.90;;;;;;5132795;27;20049;-62
2022/11/16 12:11:54;;;;;;;6.05;1.05;;;11.60;99.90;;;;;;5128076;27;20510;-63
2022/11/16 12:14:21;;;;;;;6.60;1.20;;;11.70;99.90;;;;;;5129215;27;20039;-61
2022/11/16 12:16:48;;;;;;;6.25;1.33;;;11.70;99.90;;;;;;5132917;27;20059;-61
2022/11/16 12:19:15;;;;;;;6.63;1.30;;;11.70;99.90;;;;;;5134752;27;20049;-62
2022/11/16 12:21:42;;;;;;;5.57;1.40;;;11.70;99.90;;;;;;5132784;27;20047;-62
2022/11/16 12:24:08;;;;;;;6.05;1.40;;;11.70;99.90;;;;;;5127927;27;20394;-62
2022/11/16 12:26:35;;;;;;;5.93;1.20;;;11.70;99.90;;;;;;5133679;27;20067;-63
2022/11/16 12:29:02;;;;;;;8.68;1.40;;;11.70;99.90;;;;;;5129199;27;20040;-62
2022/11/16 12:31:28;;;;;;;8.40;1.70;;;11.70;99.90;;;;;;5134806;27;20490;-62
2022/11/16 12:33:55;;;;;;;9.75;1.83;;;11.60;99.90;;;;;;5116007;27;20043;-63
2022/11/16 12:36:22;;;;;;;32.33;3.75;;;11.70;99.90;;;;;;5133835;27;20093;-61
2022/11/16 12:38:48;;;;;;;6.97;1.38;;;11.70;99.90;;;;;;5130947;27;20035;-62
2022/11/16 12:41:15;;;;;;;10.15;1.50;;;11.70;99.90;;;;;;5131893;27;20049;-63
2022/11/16 12:43:42;;;;;;;9.50;2.10;;;11.60;99.90;;;;;;5133513;27;20126;-61
2022/11/16 12:46:09;;;;;;;8.32;1.88;;;11.60;99.90;;;;;;5133180;27;20035;-61
2022/11/16 12:48:35;;;;;;;5.57;1.30;;;11.60;99.90;;;;;;5134304;27;20088;-60
2022/11/16 12:51:02;;;;;;;6.85;1.70;;;11.70;99.90;;;;;;5133986;27;20058;-61
2022/11/16 12:53:29;;;;;;;13.05;2.00;;;11.70;99.90;;;;;;5132877;27;20035;-61
2022/11/16 12:55:56;;;;;;;11.45;2.03;;;11.80;99.90;;;;;;5133319;27;20045;-62
2022/11/16 12:58:23;;;;;;;8.70;1.65;;;11.80;99.90;;;;;;5134248;27;20039;-61
2022/11/16 13:00:50;;;;;;;7.80;1.75;;;11.80;99.90;;;;;;5132464;27;20039;-62
2022/11/16 13:03:16;;;;;;;22.92;2.83;;;11.90;99.90;;;;;;5133253;27;20035;-62
2022/11/16 13:05:43;;;;;;;16.30;2.00;;;11.90;99.90;;;;;;5131757;27;20073;-64
2022/11/16 13:08:10;;;;;;;10.00;1.67;;;11.90;99.90;;;;;;5133611;27;20045;-63
2022/11/16 13:10:37;;;;;;;10.60;2.05;;;11.90;99.90;;;;;;5133560;27;20070;-63
2022/11/16 13:13:04;;;;;;;7.28;1.70;;;11.90;99.90;;;;;;5133784;27;20043;-65
2022/11/16 13:15:51;;;;;;;10.48;2.35;;;11.90;99.90;;;;;;5133168;27;20053;-61
2022/11/16 13:18:17;;;;;;;12.68;2.33;;;11.90;99.90;;;;;;5134190;27;20043;-62
2022/11/16 13:20:44;;;;;;;10.93;2.25;;;12.00;99.90;;;;;;5131296;27;20096;-61
2022/11/16 13:23:11;;;;;;;11.18;2.17;;;12.00;99.90;;;;;;5131500;27;20434;-63
2022/11/16 13:25:38;;;;;;;16.15;2.20;;;12.00;99.90;;;;;;5134142;27;20107;-62
2022/11/16 13:28:04;;;;;;;13.95;2.72;;;12.00;99.90;;;;;;5134000;27;20406;-64
2022/11/16 13:30:31;;;;;;;14.15;2.33;;;12.00;99.90;;;;;;5127663;27;20604;-62
2022/11/16 13:32:58;;;;;;;9.07;2.50;;;12.00;99.90;;;;;;5129034;27;20039;-63
2022/11/16 13:35:24;;;;;;;16.90;2.85;;;12.00;99.90;;;;;;5134205;27;20035;-62